Terminal Aerodrome Forecast
Issued by NWS Omaha/Valley, NE

Home | Current Version | Previous Version | Text Only | Print | Product List | Glossary On
Versions: 1 2 3 4 5 6 7 8 9 10 11 12 13 14 15 16 17 18 19 20 21 22 23 24 25 26 27 28 29 30 31 32 33 34 35 36 37 38 39 40 41
000
FTUS43 KOAX 051120
TAFOMA
TAF
KOMA 051120Z 0512/0612 17009KT P6SM BKN200 WS020/21040KT
     FM051600 18012G21KT P6SM BKN200
     FM052200 22011KT P6SM BKN200
     FM060000 25008KT P6SM BKN080
     FM060200 28008KT P6SM BKN060
     FM060400 31010KT P6SM BKN130=

USA.gov is the U.S. government's official web portal to all federal, state and local government web resources and services.